Time;durP1;ratioP1;P1;durP2;ratioP2;P2;SDS_P1;SDS_P2;PMS_P1;PMS_P2;Temp;Humidity;BMP_temperature;BMP_pressure;BME280_temperature;BME280_humidity;BME280_pressure;Samples;Min_cycle;Max_cycle;Signal;HPM_P1;HPM_P2
2024/03/16 00:02:07;;;;;;;0.40;0.30;;;17.20;72.00;;;;;;4983956;28;20130;-79
2024/03/16 00:04:33;;;;;;;0.73;0.30;;;17.20;72.00;;;;;;4990420;28;20380;-79
2024/03/16 00:06:58;;;;;;;0.82;0.50;;;17.20;72.00;;;;;;4988314;28;20100;-79
2024/03/16 00:09:24;;;;;;;0.60;0.40;;;17.20;71.80;;;;;;5002602;28;20105;-79
2024/03/16 00:11:50;;;;;;;0.55;0.40;;;17.20;71.90;;;;;;4969668;28;20054;-78
2024/03/16 00:14:16;;;;;;;0.95;0.20;;;17.20;72.00;;;;;;4989586;28;20042;-79
2024/03/16 00:16:41;;;;;;;0.60;0.30;;;17.20;72.00;;;;;;4988853;28;20058;-79
2024/03/16 00:19:07;;;;;;;0.30;0.30;;;17.20;72.10;;;;;;4990069;28;20046;-79
2024/03/16 00:21:33;;;;;;;0.45;0.30;;;17.20;72.10;;;;;;4970550;28;20392;-79
2024/03/16 00:23:58;;;;;;;0.30;0.30;;;17.20;71.90;;;;;;4984572;28;20485;-79
2024/03/16 00:26:24;;;;;;;0.38;0.30;;;17.20;72.00;;;;;;4985793;28;20038;-79
2024/03/16 00:28:50;;;;;;;1.85;0.55;;;17.20;71.90;;;;;;4987288;28;20492;-79
2024/03/16 00:31:18;;;;;;;0.60;0.40;;;17.20;71.90;;;;;;4970592;28;20046;-79
2024/03/16 00:33:43;;;;;;;0.60;0.50;;;17.20;71.90;;;;;;4988215;28;20050;-79
2024/03/16 00:36:09;;;;;;;0.50;0.40;;;17.20;71.90;;;;;;4986943;28;20054;-78
2024/03/16 00:38:35;;;;;;;1.02;0.30;;;17.10;72.00;;;;;;5001680;28;20049;-79
2024/03/16 00:41:02;;;;;;;0.22;0.22;;;17.10;71.80;;;;;;5002675;28;20680;-79
2024/03/16 00:43:28;;;;;;;0.77;0.40;;;17.10;71.90;;;;;;4987399;28;20050;-79
2024/03/16 00:45:53;;;;;;;0.32;0.20;;;17.10;71.90;;;;;;4987609;28;20129;-78
2024/03/16 00:48:19;;;;;;;0.75;0.40;;;17.10;72.00;;;;;;4988299;28;20416;-79
2024/03/16 00:50:45;;;;;;;0.55;0.30;;;17.10;72.00;;;;;;4989295;28;20054;-79
2024/03/16 00:53:11;;;;;;;0.68;0.40;;;17.10;71.90;;;;;;5002305;28;20039;-79
2024/03/16 00:55:37;;;;;;;0.35;0.35;;;17.10;71.90;;;;;;4987453;28;20047;-79
2024/03/16 00:58:03;;;;;;;0.75;0.38;;;17.10;71.90;;;;;;4987497;28;20510;-79
2024/03/16 01:00:31;;;;;;;0.60;0.40;;;17.10;71.80;;;;;;4987248;28;20054;-79
2024/03/16 01:02:57;;;;;;;0.50;0.30;;;17.10;71.80;;;;;;4987899;28;20049;-79
2024/03/16 01:05:23;;;;;;;0.55;0.35;;;17.10;71.90;;;;;;4987871;28;20046;-79
2024/03/16 01:07:48;;;;;;;0.38;0.38;;;17.10;71.80;;;;;;4986770;28;20121;-78
2024/03/16 01:10:14;;;;;;;0.38;0.25;;;17.10;71.90;;;;;;4987489;28;20045;-79
2024/03/16 01:12:40;;;;;;;0.65;0.35;;;17.10;71.90;;;;;;4987786;28;20061;-79
2024/03/16 01:15:06;;;;;;;0.38;0.35;;;17.10;71.90;;;;;;4986825;28;20496;-79
2024/03/16 01:17:31;;;;;;;0.30;0.20;;;17.10;71.70;;;;;;4988442;28;20530;-79
2024/03/16 01:19:57;;;;;;;0.65;0.35;;;17.10;71.80;;;;;;4984803;28;20038;-79
2024/03/16 01:22:22;;;;;;;0.30;0.17;;;17.10;71.80;;;;;;4986872;28;20053;-79
2024/03/16 01:24:49;;;;;;;0.40;0.30;;;17.10;71.80;;;;;;4985499;28;20121;-79
2024/03/16 01:27:15;;;;;;;0.40;0.30;;;17.10;71.80;;;;;;4985908;28;20046;-79
2024/03/16 01:29:41;;;;;;;0.60;0.35;;;17.10;71.70;;;;;;4985648;28;20061;-79
2024/03/16 01:32:08;;;;;;;1.00;0.60;;;17.10;72.50;;;;;;4986392;28;20030;-79
2024/03/16 01:34:34;;;;;;;0.30;0.28;;;17.10;71.80;;;;;;4987616;28;20057;-79
2024/03/16 01:37:00;;;;;;;0.32;0.30;;;17.10;71.90;;;;;;4968177;28;20088;-79
2024/03/16 01:39:26;;;;;;;0.63;0.40;;;17.10;71.80;;;;;;4987425;28;20066;-79
2024/03/16 01:41:51;;;;;;;0.40;0.40;;;17.00;71.80;;;;;;5002018;28;20049;-79
2024/03/16 01:44:17;;;;;;;0.43;0.30;;;17.10;71.80;;;;;;4986208;28;20042;-79
2024/03/16 01:46:42;;;;;;;0.25;0.20;;;17.10;71.80;;;;;;4984940;28;20047;-79
2024/03/16 01:49:08;;;;;;;1.00;0.20;;;17.10;71.90;;;;;;4980803;28;20602;-79
2024/03/16 01:51:36;;;;;;;0.50;0.40;;;17.10;71.80;;;;;;4985810;28;20138;-79
2024/03/16 01:54:02;;;;;;;0.50;0.20;;;17.10;71.90;;;;;;4986412;28;20626;-79
2024/03/16 01:56:27;;;;;;;0.60;0.25;;;17.10;71.80;;;;;;4985195;28;20141;-78
2024/03/16 01:58:53;;;;;;;0.80;0.45;;;17.10;72.60;;;;;;4985553;28;20052;-79
2024/03/16 02:01:18;;;;;;;0.45;0.30;;;17.10;71.90;;;;;;4985978;28;20076;-79
2024/03/16 02:03:46;;;;;;;0.70;0.40;;;17.10;71.80;;;;;;4986299;28;20050;-79
2024/03/16 02:06:12;;;;;;;0.50;0.30;;;17.10;71.90;;;;;;4985517;28;20054;-79
2024/03/16 02:08:38;;;;;;;0.45;0.20;;;17.10;71.70;;;;;;4986491;28;20049;-79
2024/03/16 02:11:04;;;;;;;0.95;0.30;;;17.10;71.70;;;;;;4984430;28;20038;-78
2024/03/16 02:13:30;;;;;;;0.93;0.40;;;17.10;71.80;;;;;;4984829;28;20038;-79
2024/03/16 02:15:55;;;;;;;0.60;0.22;;;17.10;71.80;;;;;;4986020;28;20042;-78
2024/03/16 02:18:21;;;;;;;0.32;0.30;;;17.00;71.60;;;;;;4983692;28;20050;-79
2024/03/16 02:20:46;;;;;;;0.40;0.30;;;17.00;71.70;;;;;;5001949;28;20050;-79
2024/03/16 02:23:12;;;;;;;1.48;0.57;;;17.00;71.70;;;;;;5001076;28;20043;-79
2024/03/16 02:25:38;;;;;;;0.63;0.40;;;17.10;71.70;;;;;;4984814;28;20122;-79
2024/03/16 02:28:04;;;;;;;0.40;0.20;;;17.10;71.70;;;;;;4983591;28;20039;-79
2024/03/16 02:30:30;;;;;;;0.45;0.30;;;17.10;71.80;;;;;;4987203;28;20049;-79
2024/03/16 02:32:56;;;;;;;0.47;0.30;;;17.10;71.80;;;;;;4986594;28;20085;-79
2024/03/16 02:35:22;;;;;;;0.50;0.40;;;17.00;71.60;;;;;;4984301;28;20046;-79
2024/03/16 02:37:48;;;;;;;0.40;0.30;;;17.10;71.70;;;;;;4998597;28;20042;-79
2024/03/16 02:40:14;;;;;;;0.63;0.35;;;17.00;71.60;;;;;;4979619;28;20043;-77
2024/03/16 02:42:42;;;;;;;0.60;0.32;;;17.00;71.70;;;;;;4984966;28;20129;-78
2024/03/16 02:45:08;;;;;;;0.57;0.30;;;17.00;72.40;;;;;;4987570;28;20035;-79
2024/03/16 02:47:34;;;;;;;0.55;0.38;;;17.00;71.60;;;;;;4982247;28;20054;-79
2024/03/16 02:50:03;;;;;;;0.60;0.30;;;17.00;71.60;;;;;;4985700;28;20046;-79
2024/03/16 02:52:32;;;;;;;0.40;0.30;;;17.00;71.50;;;;;;4952378;28;20051;-79
2024/03/16 02:54:58;;;;;;;0.50;0.40;;;17.00;71.60;;;;;;4982142;28;20030;-79
2024/03/16 02:57:25;;;;;;;0.98;0.45;;;17.00;71.60;;;;;;4968135;28;20062;-79
2024/03/16 02:59:50;;;;;;;0.40;0.40;;;17.10;71.80;;;;;;4985398;28;20026;-79
2024/03/16 03:02:22;;;;;;;1.02;0.63;;;17.00;71.60;;;;;;4982894;28;20101;-79
2024/03/16 03:04:49;;;;;;;0.50;0.30;;;17.00;71.60;;;;;;4981635;28;20575;-79
2024/03/16 03:07:14;;;;;;;0.45;0.45;;;17.00;72.40;;;;;;4984349;28;20057;-79
2024/03/16 03:09:40;;;;;;;0.32;0.25;;;17.00;71.60;;;;;;4968620;28;20050;-79
2024/03/16 03:12:07;;;;;;;0.88;0.70;;;17.00;71.60;;;;;;4979438;28;20113;-78
2024/03/16 03:14:32;;;;;;;0.30;0.30;;;17.00;71.70;;;;;;4985742;28;20124;-79
2024/03/16 03:16:58;;;;;;;1.67;0.50;;;17.00;71.60;;;;;;4984566;28;20058;-79
2024/03/16 03:19:24;;;;;;;0.43;0.32;;;17.00;71.60;;;;;;4985080;28;20073;-78
2024/03/16 03:21:50;;;;;;;0.73;0.43;;;17.00;71.60;;;;;;4981136;28;20069;-79
2024/03/16 03:24:15;;;;;;;0.60;0.25;;;17.00;71.60;;;;;;4986715;28;20054;-79
2024/03/16 03:26:41;;;;;;;0.68;0.45;;;17.00;71.60;;;;;;4986280;28;20046;-79
2024/03/16 03:29:06;;;;;;;0.70;0.40;;;17.00;71.60;;;;;;5002781;28;20046;-78
2024/03/16 03:31:32;;;;;;;0.80;0.40;;;17.00;71.50;;;;;;4987032;28;20800;-78
2024/03/16 03:33:57;;;;;;;0.65;0.40;;;17.00;71.60;;;;;;4988703;28;20042;-78
2024/03/16 03:36:23;;;;;;;0.45;0.43;;;17.00;71.70;;;;;;4985475;28;20137;-79
2024/03/16 03:38:49;;;;;;;0.77;0.40;;;17.00;71.60;;;;;;4988888;28;20062;-78
2024/03/16 03:41:14;;;;;;;0.47;0.28;;;17.00;72.30;;;;;;4986366;28;20507;-79
2024/03/16 03:43:42;;;;;;;1.10;0.35;;;17.00;71.70;;;;;;4986251;28;20073;-79
2024/03/16 03:46:13;;;;;;;1.02;0.50;;;17.00;71.60;;;;;;4986240;28;20038;-78
2024/03/16 03:48:49;;;;;;;0.40;0.30;;;17.00;71.60;;;;;;4988097;28;20117;-79
2024/03/16 03:51:15;;;;;;;0.75;0.63;;;17.00;71.60;;;;;;4985400;28;20074;-79
2024/03/16 03:53:40;;;;;;;0.70;0.50;;;16.90;71.50;;;;;;4989337;28;20097;-78
2024/03/16 03:56:06;;;;;;;0.75;0.50;;;16.90;71.50;;;;;;4983677;28;20050;-79
2024/03/16 03:58:31;;;;;;;1.13;0.60;;;16.90;71.50;;;;;;4988143;28;20045;-78
2024/03/16 04:00:57;;;;;;;0.40;0.30;;;17.00;71.70;;;;;;4986882;28;20049;-79
2024/03/16 04:03:23;;;;;;;0.50;0.40;;;17.00;71.60;;;;;;4986397;28;20121;-78
2024/03/16 04:05:51;;;;;;;0.63;0.35;;;17.00;71.60;;;;;;4986937;28;20129;-79
2024/03/16 04:08:17;;;;;;;0.70;0.40;;;16.90;71.60;;;;;;4985014;28;20046;-79
2024/03/16 04:10:43;;;;;;;0.52;0.40;;;16.90;71.50;;;;;;4987332;28;20431;-79
2024/03/16 04:13:08;;;;;;;0.73;0.50;;;16.90;72.50;;;;;;4988032;28;20034;-79
2024/03/16 04:15:34;;;;;;;0.95;0.50;;;16.90;71.60;;;;;;4988256;28;20133;-79
2024/03/16 04:17:59;;;;;;;0.60;0.35;;;16.90;71.50;;;;;;4988831;28;20049;-79
2024/03/16 04:20:25;;;;;;;1.38;0.50;;;16.90;71.40;;;;;;4988067;28;20188;-78
2024/03/16 04:22:50;;;;;;;0.70;0.50;;;16.90;71.60;;;;;;4988642;28;20035;-78
2024/03/16 04:25:16;;;;;;;1.38;0.55;;;16.90;71.60;;;;;;4985961;28;20518;-79
2024/03/16 04:27:46;;;;;;;0.70;0.55;;;16.90;71.50;;;;;;4987345;28;20567;-79
2024/03/16 04:30:11;;;;;;;0.73;0.40;;;16.90;71.50;;;;;;4985127;28;20081;-79
2024/03/16 04:32:37;;;;;;;0.70;0.50;;;16.90;71.50;;;;;;4986553;28;20464;-79
2024/03/16 04:35:04;;;;;;;1.95;0.68;;;16.90;72.30;;;;;;4986726;28;20591;-79
2024/03/16 04:37:30;;;;;;;1.38;0.57;;;16.90;71.50;;;;;;4987868;28;20074;-78
2024/03/16 04:39:56;;;;;;;1.30;0.45;;;16.90;71.60;;;;;;4984392;28;20073;-79
2024/03/16 04:42:22;;;;;;;0.70;0.30;;;16.90;71.60;;;;;;4987282;28;20511;-78
2024/03/16 04:44:47;;;;;;;0.90;0.50;;;16.90;71.60;;;;;;4989081;28;20516;-79
2024/03/16 04:47:13;;;;;;;0.77;0.20;;;16.90;71.60;;;;;;5001664;28;20048;-79
2024/03/16 04:49:39;;;;;;;0.45;0.40;;;16.90;71.50;;;;;;4987464;28;20043;-79
2024/03/16 04:52:04;;;;;;;0.90;0.68;;;16.90;71.50;;;;;;5002999;28;20049;-79
2024/03/16 04:54:30;;;;;;;1.00;0.57;;;16.90;71.60;;;;;;4985867;28;20125;-79
2024/03/16 04:56:55;;;;;;;0.63;0.52;;;16.90;71.50;;;;;;4988706;28;20519;-79
2024/03/16 04:59:21;;;;;;;0.93;0.57;;;16.90;72.30;;;;;;4987067;28;20677;-79
2024/03/16 05:01:47;;;;;;;0.45;0.30;;;16.90;71.60;;;;;;4986054;28;20508;-78
2024/03/16 05:04:15;;;;;;;1.33;0.70;;;16.90;71.50;;;;;;4981045;28;20129;-78
2024/03/16 05:06:40;;;;;;;0.95;0.40;;;16.90;72.30;;;;;;4985297;28;20057;-79
2024/03/16 05:09:09;;;;;;;0.85;0.52;;;16.90;71.60;;;;;;4983155;28;20125;-79
2024/03/16 05:11:36;;;;;;;0.98;0.60;;;16.90;71.50;;;;;;4984765;28;20105;-79
2024/03/16 05:14:02;;;;;;;0.60;0.50;;;16.90;71.80;;;;;;4986374;28;20084;-79
2024/03/16 05:16:28;;;;;;;0.90;0.60;;;16.90;71.60;;;;;;4983989;28;20113;-78
2024/03/16 05:18:53;;;;;;;1.50;0.60;;;16.90;71.60;;;;;;4983235;28;20038;-79
2024/03/16 05:21:19;;;;;;;0.95;0.52;;;16.90;71.60;;;;;;4983155;28;20038;-79
2024/03/16 05:23:45;;;;;;;1.13;0.55;;;16.90;71.60;;;;;;4987672;28;20058;-79
2024/03/16 05:26:14;;;;;;;0.82;0.45;;;16.80;71.60;;;;;;4986331;28;20049;-78
2024/03/16 05:28:39;;;;;;;0.80;0.60;;;16.90;71.70;;;;;;4985985;28;20101;-79
2024/03/16 05:31:05;;;;;;;1.15;0.50;;;16.90;71.50;;;;;;4985460;28;20031;-79
2024/03/16 05:33:31;;;;;;;0.88;0.30;;;16.90;72.40;;;;;;4986734;28;20129;-79
2024/03/16 05:35:58;;;;;;;0.70;0.52;;;16.90;71.50;;;;;;4984980;28;20125;-78
2024/03/16 05:38:24;;;;;;;0.50;0.40;;;16.90;72.50;;;;;;4985455;28;20041;-78
2024/03/16 05:40:49;;;;;;;0.77;0.32;;;16.80;71.50;;;;;;4986245;28;20038;-79
2024/03/16 05:43:15;;;;;;;0.98;0.40;;;16.80;71.50;;;;;;4965100;28;20045;-79
2024/03/16 05:45:41;;;;;;;0.40;0.30;;;16.80;71.50;;;;;;4984303;28;20574;-79
2024/03/16 05:48:07;;;;;;;1.75;0.63;;;16.90;71.60;;;;;;4985783;28;20042;-79
2024/03/16 05:50:33;;;;;;;1.05;0.60;;;16.80;71.60;;;;;;4984578;28;20066;-78
2024/03/16 05:52:59;;;;;;;0.90;0.60;;;16.80;71.50;;;;;;4968095;28;20042;-79
2024/03/16 05:55:25;;;;;;;0.82;0.32;;;16.80;71.60;;;;;;4999718;28;20046;-79
2024/03/16 05:57:50;;;;;;;0.47;0.40;;;16.80;71.50;;;;;;4985294;28;20397;-79
2024/03/16 06:00:18;;;;;;;1.63;0.75;;;16.80;71.60;;;;;;4983595;28;20409;-78
2024/03/16 06:02:44;;;;;;;1.40;0.60;;;16.80;71.50;;;;;;4987618;28;20432;-79
2024/03/16 06:05:09;;;;;;;1.70;0.60;;;16.90;71.70;;;;;;4999906;28;20512;-78
2024/03/16 06:07:35;;;;;;;0.80;0.60;;;16.80;71.60;;;;;;4984704;28;20427;-78
2024/03/16 06:10:00;;;;;;;0.55;0.30;;;16.80;71.50;;;;;;4985834;28;20039;-79
2024/03/16 06:12:30;;;;;;;0.93;0.60;;;16.80;71.60;;;;;;4984826;28;26603;-79
2024/03/16 06:14:56;;;;;;;0.85;0.63;;;16.80;71.70;;;;;;4986668;28;20038;-79
2024/03/16 06:17:22;;;;;;;0.75;0.52;;;16.80;71.60;;;;;;4985769;28;20046;-79
2024/03/16 06:19:49;;;;;;;0.77;0.45;;;16.80;71.70;;;;;;4981098;28;20512;-79
2024/03/16 06:22:15;;;;;;;0.50;0.40;;;16.80;71.70;;;;;;4980659;28;20428;-78
2024/03/16 06:24:42;;;;;;;0.80;0.68;;;16.80;71.60;;;;;;4987044;28;20109;-79
2024/03/16 06:27:10;;;;;;;1.20;0.60;;;16.80;71.70;;;;;;4983641;28;20075;-79
2024/03/16 06:29:36;;;;;;;1.52;0.57;;;16.80;71.60;;;;;;4981833;28;20062;-79
2024/03/16 06:32:07;;;;;;;0.90;0.52;;;16.80;71.60;;;;;;4986051;28;20042;-79
2024/03/16 06:34:33;;;;;;;0.60;0.50;;;16.80;71.60;;;;;;4984578;28;20034;-78
2024/03/16 06:36:59;;;;;;;0.50;0.35;;;16.80;71.60;;;;;;4986134;28;20523;-79
2024/03/16 06:39:25;;;;;;;0.93;0.47;;;16.80;72.50;;;;;;4976071;28;20035;-79
2024/03/16 06:41:51;;;;;;;1.35;0.50;;;16.80;71.70;;;;;;4987195;28;20108;-78
2024/03/16 06:44:17;;;;;;;0.80;0.40;;;16.80;72.50;;;;;;4985386;28;20129;-79
2024/03/16 06:46:43;;;;;;;0.93;0.50;;;16.80;71.70;;;;;;4985632;28;20050;-78
2024/03/16 06:49:08;;;;;;;1.38;0.50;;;16.80;71.70;;;;;;4984505;28;20057;-78
2024/03/16 06:51:34;;;;;;;1.20;0.60;;;16.80;71.70;;;;;;4986031;28;20049;-78
2024/03/16 06:54:00;;;;;;;0.93;0.47;;;16.80;71.70;;;;;;4985988;28;20046;-78
2024/03/16 06:56:25;;;;;;;0.60;0.40;;;16.80;71.70;;;;;;4985825;28;20133;-79
2024/03/16 06:58:51;;;;;;;1.33;0.57;;;16.80;71.70;;;;;;4970761;28;20030;-79
2024/03/16 07:01:17;;;;;;;0.77;0.65;;;16.80;71.70;;;;;;4987098;28;20109;-78
2024/03/16 07:03:43;;;;;;;1.17;0.70;;;16.80;71.70;;;;;;4988126;28;20045;-79
2024/03/16 07:06:08;;;;;;;0.70;0.50;;;16.80;71.70;;;;;;4990200;28;20508;-78
2024/03/16 07:08:38;;;;;;;0.50;0.40;;;16.80;71.60;;;;;;4990488;28;20492;-79
2024/03/16 07:11:04;;;;;;;1.92;0.82;;;16.80;71.70;;;;;;4988770;28;20054;-79
2024/03/16 07:13:31;;;;;;;0.90;0.60;;;16.80;71.70;;;;;;4989161;28;20503;-79
2024/03/16 07:15:56;;;;;;;0.80;0.45;;;16.80;72.10;;;;;;4987995;28;20053;-78
2024/03/16 07:18:22;;;;;;;1.65;0.68;;;16.80;71.80;;;;;;4955374;28;20126;-79
2024/03/16 07:20:47;;;;;;;1.00;0.45;;;16.80;71.80;;;;;;4989086;28;20416;-78
2024/03/16 07:23:13;;;;;;;1.02;0.35;;;16.80;71.80;;;;;;4968886;28;20050;-79
2024/03/16 07:25:41;;;;;;;0.70;0.40;;;16.80;71.70;;;;;;4987038;28;20097;-79
2024/03/16 07:28:07;;;;;;;0.73;0.50;;;16.80;71.70;;;;;;4985411;28;20057;-79
2024/03/16 07:30:34;;;;;;;0.93;0.50;;;16.80;71.80;;;;;;4984750;28;20042;-79
2024/03/16 07:33:00;;;;;;;1.98;0.70;;;16.80;71.80;;;;;;4987504;28;20492;-79
2024/03/16 07:35:27;;;;;;;0.70;0.50;;;16.80;71.80;;;;;;4986090;28;20125;-79
2024/03/16 07:37:53;;;;;;;1.55;0.63;;;16.80;71.80;;;;;;4987219;28;20088;-79
2024/03/16 07:40:21;;;;;;;1.30;0.55;;;16.80;71.80;;;;;;4983652;28;20027;-79
2024/03/16 07:42:47;;;;;;;1.05;0.77;;;16.80;71.80;;;;;;4986452;28;20097;-79
2024/03/16 07:45:14;;;;;;;0.85;0.50;;;16.80;71.80;;;;;;4985391;28;20080;-79
2024/03/16 07:47:40;;;;;;;2.25;0.75;;;16.80;71.80;;;;;;4985008;28;20046;-79
2024/03/16 07:50:06;;;;;;;0.98;0.70;;;16.80;71.80;;;;;;4967464;28;20058;-79
2024/03/16 07:52:32;;;;;;;1.45;0.88;;;16.80;71.70;;;;;;4984899;28;20050;-79
2024/03/16 07:54:58;;;;;;;0.80;0.43;;;16.80;71.70;;;;;;4970368;28;20113;-79
2024/03/16 07:57:24;;;;;;;0.95;0.70;;;16.80;71.70;;;;;;4987781;28;20070;-79
2024/03/16 07:59:49;;;;;;;1.10;0.73;;;16.90;71.70;;;;;;4988721;28;20031;-79
2024/03/16 08:02:15;;;;;;;0.95;0.65;;;16.90;71.70;;;;;;4987157;28;20038;-79
2024/03/16 08:04:40;;;;;;;1.10;0.55;;;16.90;71.70;;;;;;5003538;28;20057;-79
2024/03/16 08:07:06;;;;;;;1.00;0.47;;;16.90;71.70;;;;;;5001670;28;20031;-78
2024/03/16 08:09:32;;;;;;;0.95;0.45;;;16.90;71.60;;;;;;4986492;28;20407;-79
2024/03/16 08:11:57;;;;;;;1.20;0.60;;;16.90;71.60;;;;;;4988797;28;20066;-79
2024/03/16 08:14:24;;;;;;;0.50;0.40;;;16.90;71.60;;;;;;4987933;28;20050;-79
2024/03/16 08:16:49;;;;;;;0.65;0.40;;;16.90;71.60;;;;;;4987171;28;20125;-79
2024/03/16 08:19:16;;;;;;;1.25;0.70;;;16.90;71.60;;;;;;4987703;28;20098;-79
2024/03/16 08:21:42;;;;;;;0.80;0.50;;;16.90;71.60;;;;;;4987312;28;20401;-79
2024/03/16 08:24:08;;;;;;;0.88;0.77;;;16.90;71.50;;;;;;4988747;28;20046;-79
2024/03/16 08:26:34;;;;;;;0.90;0.40;;;16.90;71.50;;;;;;4988620;28;20096;-79
2024/03/16 08:29:00;;;;;;;1.33;0.68;;;17.00;71.50;;;;;;4984017;28;20583;-79
2024/03/16 08:31:25;;;;;;;1.05;0.60;;;17.00;71.50;;;;;;4984448;28;20046;-78
2024/03/16 08:33:51;;;;;;;0.70;0.40;;;17.00;71.50;;;;;;4986313;28;20043;-79
2024/03/16 08:36:17;;;;;;;1.02;0.55;;;17.00;71.40;;;;;;4982288;28;20034;-79
2024/03/16 08:38:42;;;;;;;0.98;0.52;;;17.00;71.40;;;;;;4989964;28;20460;-79
2024/03/16 08:41:08;;;;;;;1.45;0.70;;;17.00;71.40;;;;;;4985625;28;20045;-79
2024/03/16 08:43:33;;;;;;;0.95;0.52;;;17.00;71.30;;;;;;4984163;28;20054;-79
2024/03/16 08:46:06;;;;;;;0.30;0.30;;;17.00;71.50;;;;;;4984652;28;20096;-79
2024/03/16 08:48:34;;;;;;;0.73;0.65;;;17.00;71.50;;;;;;4985793;28;20042;-79
2024/03/16 08:51:00;;;;;;;0.90;0.50;;;17.10;71.50;;;;;;4986935;28;20524;-79
2024/03/16 08:53:26;;;;;;;1.27;0.50;;;17.10;71.50;;;;;;4984671;28;20965;-79
2024/03/16 08:55:56;;;;;;;0.93;0.73;;;17.00;71.60;;;;;;4987135;28;20035;-79
2024/03/16 08:58:25;;;;;;;0.82;0.45;;;17.10;71.60;;;;;;4984076;28;20122;-79
2024/03/16 09:00:54;;;;;;;0.95;0.55;;;17.10;71.60;;;;;;4987673;28;20424;-79
2024/03/16 09:03:20;;;;;;;0.68;0.68;;;17.10;71.50;;;;;;4984506;28;20041;-78
2024/03/16 09:05:45;;;;;;;0.60;0.43;;;17.10;71.70;;;;;;4969761;28;20061;-79
2024/03/16 09:08:11;;;;;;;0.95;0.60;;;17.10;71.60;;;;;;4984081;28;20086;-79
2024/03/16 09:10:37;;;;;;;0.95;0.50;;;17.10;71.60;;;;;;4986602;28;20037;-79
2024/03/16 09:13:03;;;;;;;0.40;0.40;;;17.10;71.70;;;;;;4986795;28;20043;-79
2024/03/16 09:15:28;;;;;;;0.90;0.50;;;17.10;71.70;;;;;;4986113;28;20053;-79
2024/03/16 09:17:54;;;;;;;1.20;0.80;;;17.10;71.60;;;;;;4987753;28;20046;-79
2024/03/16 09:20:20;;;;;;;1.23;0.88;;;17.10;71.70;;;;;;4986344;28;20266;-79
2024/03/16 09:22:45;;;;;;;1.75;0.55;;;17.10;71.70;;;;;;4986928;28;20050;-79
2024/03/16 09:25:11;;;;;;;1.13;0.70;;;17.10;71.70;;;;;;4987179;28;20039;-79
2024/03/16 09:27:37;;;;;;;1.35;0.73;;;17.10;71.80;;;;;;4985699;28;20038;-80
2024/03/16 09:30:06;;;;;;;0.88;0.88;;;17.10;71.60;;;;;;4967215;28;20094;-79
2024/03/16 09:32:32;;;;;;;2.70;0.77;;;17.10;71.80;;;;;;4983489;28;20042;-79
2024/03/16 09:34:57;;;;;;;1.45;0.80;;;17.10;71.60;;;;;;4989099;28;20068;-79
2024/03/16 09:37:23;;;;;;;1.00;0.63;;;17.10;71.80;;;;;;4984120;28;20070;-79
2024/03/16 09:39:49;;;;;;;1.00;0.57;;;17.20;71.90;;;;;;4967141;28;20066;-79
2024/03/16 09:42:14;;;;;;;0.88;0.60;;;17.10;71.90;;;;;;4987240;28;20093;-79
2024/03/16 09:44:40;;;;;;;0.60;0.50;;;17.10;71.90;;;;;;4968876;28;20467;-79
2024/03/16 09:47:14;;;;;;;1.77;0.75;;;17.10;71.80;;;;;;4980805;28;20034;-80
2024/03/16 09:49:41;;;;;;;1.05;0.57;;;17.20;72.00;;;;;;4967661;28;20050;-79
2024/03/16 09:52:10;;;;;;;0.52;0.40;;;17.20;71.90;;;;;;4982382;28;20053;-79
2024/03/16 09:54:37;;;;;;;1.30;0.68;;;17.10;71.90;;;;;;4982111;28;20052;-79
2024/03/16 09:57:03;;;;;;;1.55;0.70;;;17.10;71.90;;;;;;4969964;28;20050;-79
2024/03/16 09:59:29;;;;;;;1.90;0.85;;;17.10;71.80;;;;;;4965077;28;20047;-79
2024/03/16 10:01:54;;;;;;;1.15;0.70;;;17.10;71.90;;;;;;4951239;28;20134;-79
2024/03/16 10:04:20;;;;;;;0.50;0.50;;;17.10;71.90;;;;;;4979959;28;20042;-78
2024/03/16 10:06:46;;;;;;;0.73;0.45;;;17.20;71.90;;;;;;4968433;28;20833;-79
2024/03/16 10:09:15;;;;;;;0.90;0.40;;;17.20;71.90;;;;;;4987044;28;20742;-79
2024/03/16 10:11:41;;;;;;;1.00;0.38;;;17.20;72.00;;;;;;4985173;28;20408;-79
2024/03/16 10:14:11;;;;;;;0.63;0.40;;;17.20;71.80;;;;;;4968745;28;20050;-79
2024/03/16 10:16:40;;;;;;;1.15;0.68;;;17.20;72.00;;;;;;4950096;28;20050;-79
2024/03/16 10:19:06;;;;;;;1.27;0.73;;;17.20;71.90;;;;;;4983573;28;20125;-79
2024/03/16 10:21:32;;;;;;;0.82;0.45;;;17.20;71.90;;;;;;4951695;28;20037;-79
2024/03/16 10:23:58;;;;;;;1.00;0.40;;;17.10;71.90;;;;;;4985297;28;20042;-79
2024/03/16 10:26:24;;;;;;;1.35;0.70;;;17.20;71.90;;;;;;4982383;28;20034;-79
2024/03/16 10:28:50;;;;;;;1.05;0.73;;;17.20;72.00;;;;;;4981424;28;20129;-79
2024/03/16 10:31:17;;;;;;;1.13;0.73;;;17.20;72.00;;;;;;4983389;28;20117;-79
2024/03/16 10:33:43;;;;;;;1.88;0.70;;;17.20;71.80;;;;;;4986615;28;20558;-79
2024/03/16 10:36:17;;;;;;;1.02;0.75;;;17.20;71.90;;;;;;4992086;28;20104;-79
2024/03/16 10:38:46;;;;;;;1.73;0.88;;;17.20;72.00;;;;;;4989445;28;20064;-79
2024/03/16 10:41:12;;;;;;;0.80;0.50;;;17.20;71.90;;;;;;4987557;28;20584;-78
2024/03/16 10:43:38;;;;;;;1.00;0.57;;;17.20;72.00;;;;;;4989846;28;20133;-79
2024/03/16 10:46:09;;;;;;;1.15;0.60;;;17.20;72.00;;;;;;4991196;28;20050;-79
2024/03/16 10:48:35;;;;;;;1.45;0.65;;;17.20;72.00;;;;;;4981775;28;20126;-79
2024/03/16 10:51:01;;;;;;;0.65;0.50;;;17.20;72.70;;;;;;4991268;28;20062;-79
2024/03/16 10:53:27;;;;;;;0.73;0.47;;;17.20;72.70;;;;;;4970606;28;20042;-79
2024/03/16 10:55:52;;;;;;;0.75;0.43;;;17.20;71.80;;;;;;4986599;28;20404;-79
2024/03/16 10:58:27;;;;;;;1.00;0.88;;;17.20;71.70;;;;;;4986346;28;20508;-79
2024/03/16 11:01:07;;;;;;;1.00;0.60;;;17.20;71.70;;;;;;4985061;28;20042;-79
2024/03/16 11:03:36;;;;;;;1.35;0.70;;;17.20;71.70;;;;;;4986844;28;20057;-79
2024/03/16 11:06:10;;;;;;;0.82;0.60;;;17.20;71.70;;;;;;4987017;28;20046;-79
2024/03/16 11:08:46;;;;;;;0.88;0.57;;;17.20;71.60;;;;;;4988301;28;20145;-79
2024/03/16 11:11:24;;;;;;;0.82;0.52;;;17.30;71.50;;;;;;4987056;28;20133;-79
2024/03/16 11:13:56;;;;;;;0.80;0.40;;;17.30;71.50;;;;;;4988799;28;20042;-79
2024/03/16 11:16:29;;;;;;;1.17;0.60;;;17.30;71.50;;;;;;4986462;28;20045;-78
2024/03/16 11:18:55;;;;;;;0.60;0.60;;;17.30;71.40;;;;;;4980384;28;20377;-79
2024/03/16 11:21:22;;;;;;;1.10;0.60;;;17.30;71.50;;;;;;4984502;28;20507;-79
2024/03/16 11:23:48;;;;;;;0.93;0.70;;;17.30;71.30;;;;;;4989232;28;20197;-78
2024/03/16 11:26:26;;;;;;;0.60;0.43;;;17.30;71.20;;;;;;4986605;28;20448;-79
2024/03/16 11:28:51;;;;;;;0.88;0.60;;;17.30;71.30;;;;;;4988958;28;20034;-79
2024/03/16 11:31:48;;;;;;;1.40;0.70;;;17.40;71.20;;;;;;4989575;28;20042;-79
2024/03/16 11:34:19;;;;;;;1.45;0.75;;;17.40;72.00;;;;;;4976478;28;20034;-79
2024/03/16 11:36:49;;;;;;;1.05;0.60;;;17.40;71.10;;;;;;4972110;28;20053;-79
2024/03/16 11:39:24;;;;;;;0.93;0.60;;;17.40;71.10;;;;;;4974077;28;20050;-79
2024/03/16 11:41:50;;;;;;;0.95;0.57;;;17.40;71.10;;;;;;4986566;28;20058;-79
2024/03/16 11:44:16;;;;;;;1.38;0.73;;;17.40;71.10;;;;;;4970703;28;20428;-79
2024/03/16 11:46:42;;;;;;;0.80;0.50;;;17.40;71.00;;;;;;4987445;28;20050;-79
2024/03/16 11:49:09;;;;;;;0.68;0.52;;;17.40;70.80;;;;;;4989145;28;20039;-79
2024/03/16 11:51:36;;;;;;;1.02;0.63;;;17.50;70.70;;;;;;4985832;28;20042;-79
2024/03/16 11:54:03;;;;;;;0.47;0.40;;;17.60;70.40;;;;;;4989974;28;20058;-79
2024/03/16 11:56:28;;;;;;;1.08;0.52;;;17.60;70.30;;;;;;4985653;28;20057;-78
2024/03/16 11:58:54;;;;;;;0.93;0.60;;;17.60;70.30;;;;;;4951707;28;20053;-79
2024/03/16 12:01:21;;;;;;;0.80;0.60;;;17.70;70.10;;;;;;4985453;28;20046;-79
2024/03/16 12:03:48;;;;;;;1.08;0.88;;;17.70;70.10;;;;;;4970301;28;20519;-79
2024/03/16 12:06:13;;;;;;;1.13;0.80;;;17.60;70.10;;;;;;4956557;28;20072;-79
2024/03/16 12:08:39;;;;;;;1.27;0.73;;;17.70;70.10;;;;;;4970566;28;20480;-79
2024/03/16 12:11:07;;;;;;;1.00;0.43;;;17.60;70.20;;;;;;4984387;28;20051;-79
2024/03/16 12:13:33;;;;;;;1.30;0.50;;;17.60;70.30;;;;;;4986851;28;20080;-79
2024/03/16 12:15:58;;;;;;;0.50;0.38;;;17.60;70.30;;;;;;4987995;28;20074;-79
2024/03/16 12:18:25;;;;;;;1.05;0.45;;;17.60;70.30;;;;;;4970035;28;20070;-79
2024/03/16 12:20:51;;;;;;;1.10;0.77;;;17.60;70.40;;;;;;4962581;28;20117;-79
2024/03/16 12:23:18;;;;;;;0.65;0.60;;;17.60;70.30;;;;;;4969537;28;20146;-79
2024/03/16 12:25:46;;;;;;;0.95;0.60;;;17.70;70.30;;;;;;4984535;28;20085;-79
2024/03/16 12:28:11;;;;;;;0.85;0.57;;;17.70;70.30;;;;;;5003745;28;20553;-79
2024/03/16 12:30:37;;;;;;;0.95;0.52;;;17.70;70.20;;;;;;4987337;28;20034;-79
2024/03/16 12:33:04;;;;;;;1.25;0.57;;;17.70;70.20;;;;;;4982721;28;20045;-79
2024/03/16 12:35:32;;;;;;;0.90;0.60;;;17.70;70.40;;;;;;4954231;28;20042;-79
2024/03/16 12:38:00;;;;;;;1.10;0.50;;;17.70;70.20;;;;;;4985294;28;20058;-79
2024/03/16 12:40:26;;;;;;;0.80;0.60;;;17.70;71.20;;;;;;4985492;28;20038;-78
2024/03/16 12:42:54;;;;;;;0.70;0.60;;;17.70;70.30;;;;;;4987833;28;20045;-79
2024/03/16 12:45:19;;;;;;;1.25;0.60;;;17.70;70.40;;;;;;4989105;28;20096;-79